sensor_id;sensor_type;location;lat;lon;timestamp;temperature;humidity
43227;DHT22;28839;52.404;9.808;2023-07-28T00:04:05;17.50;99.90
43227;DHT22;28839;52.404;9.808;2023-07-28T00:10:59;17.50;99.90
43227;DHT22;28839;52.404;9.808;2023-07-28T00:17:53;17.50;99.90
43227;DHT22;28839;52.404;9.808;2023-07-28T00:24:48;17.50;99.90
43227;DHT22;28839;52.404;9.808;2023-07-28T00:31:42;17.50;99.90
43227;DHT22;28839;52.404;9.808;2023-07-28T00:38:36;17.50;99.90
43227;DHT22;28839;52.404;9.808;2023-07-28T00:45:33;17.50;99.90
43227;DHT22;28839;52.404;9.808;2023-07-28T00:52:27;17.50;99.90
43227;DHT22;28839;52.404;9.808;2023-07-28T00:59:20;17.50;99.90
43227;DHT22;28839;52.404;9.808;2023-07-28T01:06:24;17.50;99.90
43227;DHT22;28839;52.404;9.808;2023-07-28T01:13:20;17.50;99.90
43227;DHT22;28839;52.404;9.808;2023-07-28T01:20:14;17.50;99.90
43227;DHT22;28839;52.404;9.808;2023-07-28T01:27:10;17.50;99.90
43227;DHT22;28839;52.404;9.808;2023-07-28T01:34:04;17.40;99.90
43227;DHT22;28839;52.404;9.808;2023-07-28T01:40:57;17.50;99.90
43227;DHT22;28839;52.404;9.808;2023-07-28T01:47:53;17.50;99.90
43227;DHT22;28839;52.404;9.808;2023-07-28T01:54:46;17.40;99.90
43227;DHT22;28839;52.404;9.808;2023-07-28T02:01:40;17.40;99.90
43227;DHT22;28839;52.404;9.808;2023-07-28T02:08:35;17.30;99.90
43227;DHT22;28839;52.404;9.808;2023-07-28T02:15:29;17.30;99.90
43227;DHT22;28839;52.404;9.808;2023-07-28T02:22:23;17.40;99.90
43227;DHT22;28839;52.404;9.808;2023-07-28T02:29:18;17.40;99.90
43227;DHT22;28839;52.404;9.808;2023-07-28T02:36:12;17.30;99.90
43227;DHT22;28839;52.404;9.808;2023-07-28T02:43:06;17.40;99.90
43227;DHT22;28839;52.404;9.808;2023-07-28T02:50:01;17.40;99.90
43227;DHT22;28839;52.404;9.808;2023-07-28T02:56:55;17.40;99.90
43227;DHT22;28839;52.404;9.808;2023-07-28T03:03:49;17.40;99.90
43227;DHT22;28839;52.404;9.808;2023-07-28T03:10:44;17.40;99.90
43227;DHT22;28839;52.404;9.808;2023-07-28T03:17:38;17.50;99.90
43227;DHT22;28839;52.404;9.808;2023-07-28T03:24:31;17.50;99.90
43227;DHT22;28839;52.404;9.808;2023-07-28T03:31:27;17.50;99.90
43227;DHT22;28839;52.404;9.808;2023-07-28T03:38:20;17.50;99.90
43227;DHT22;28839;52.404;9.808;2023-07-28T03:45:14;17.50;99.90
43227;DHT22;28839;52.404;9.808;2023-07-28T03:52:09;17.50;99.90
43227;DHT22;28839;52.404;9.808;2023-07-28T03:59:03;17.50;99.90
43227;DHT22;28839;52.404;9.808;2023-07-28T04:05:58;17.50;99.90
43227;DHT22;28839;52.404;9.808;2023-07-28T04:12:53;17.50;99.90
43227;DHT22;28839;52.404;9.808;2023-07-28T04:19:47;17.60;99.90
43227;DHT22;28839;52.404;9.808;2023-07-28T04:26:40;17.50;99.90
43227;DHT22;28839;52.404;9.808;2023-07-28T04:33:36;17.50;99.90
43227;DHT22;28839;52.404;9.808;2023-07-28T04:40:30;17.50;99.90
43227;DHT22;28839;52.404;9.808;2023-07-28T04:47:24;17.50;99.90
43227;DHT22;28839;52.404;9.808;2023-07-28T04:54:19;17.60;99.90
43227;DHT22;28839;52.404;9.808;2023-07-28T05:01:13;17.60;99.90
43227;DHT22;28839;52.404;9.808;2023-07-28T05:08:07;17.60;99.90
43227;DHT22;28839;52.404;9.808;2023-07-28T05:15:02;17.60;99.90
43227;DHT22;28839;52.404;9.808;2023-07-28T05:21:57;17.70;99.90
43227;DHT22;28839;52.404;9.808;2023-07-28T05:28:50;17.70;99.90
43227;DHT22;28839;52.404;9.808;2023-07-28T05:35:46;17.70;99.90
43227;DHT22;28839;52.404;9.808;2023-07-28T05:42:39;17.70;99.90
43227;DHT22;28839;52.404;9.808;2023-07-28T05:49:33;17.70;99.90
43227;DHT22;28839;52.404;9.808;2023-07-28T05:56:28;17.80;99.90
43227;DHT22;28839;52.404;9.808;2023-07-28T06:03:22;17.80;99.90
43227;DHT22;28839;52.404;9.808;2023-07-28T06:10:16;17.90;99.90
43227;DHT22;28839;52.404;9.808;2023-07-28T06:17:11;17.90;99.90
43227;DHT22;28839;52.404;9.808;2023-07-28T06:24:05;18.00;99.90
43227;DHT22;28839;52.404;9.808;2023-07-28T06:30:59;18.10;99.90
43227;DHT22;28839;52.404;9.808;2023-07-28T06:37:54;18.30;99.90
43227;DHT22;28839;52.404;9.808;2023-07-28T06:44:48;18.40;99.90
43227;DHT22;28839;52.404;9.808;2023-07-28T06:51:42;18.30;99.90
43227;DHT22;28839;52.404;9.808;2023-07-28T06:58:37;18.30;99.90
43227;DHT22;28839;52.404;9.808;2023-07-28T07:05:31;18.40;99.90
43227;DHT22;28839;52.404;9.808;2023-07-28T07:12:25;18.40;99.90
43227;DHT22;28839;52.404;9.808;2023-07-28T07:19:20;18.40;99.90
43227;DHT22;28839;52.404;9.808;2023-07-28T07:26:14;18.40;99.90
43227;DHT22;28839;52.404;9.808;2023-07-28T07:33:08;18.50;99.90
43227;DHT22;28839;52.404;9.808;2023-07-28T07:40:04;18.60;99.90
43227;DHT22;28839;52.404;9.808;2023-07-28T07:47:00;18.70;99.90
43227;DHT22;28839;52.404;9.808;2023-07-28T07:53:54;18.90;99.90
43227;DHT22;28839;52.404;9.808;2023-07-28T08:00:49;19.00;99.90
43227;DHT22;28839;52.404;9.808;2023-07-28T08:07:43;19.10;99.90
43227;DHT22;28839;52.404;9.808;2023-07-28T08:14:39;19.00;99.90
43227;DHT22;28839;52.404;9.808;2023-07-28T08:21:34;19.00;99.90
43227;DHT22;28839;52.404;9.808;2023-07-28T08:28:29;19.30;99.90
43227;DHT22;28839;52.404;9.808;2023-07-28T08:35:25;19.80;99.90
43227;DHT22;28839;52.404;9.808;2023-07-28T08:42:20;20.30;99.90
43227;DHT22;28839;52.404;9.808;2023-07-28T08:49:14;20.50;99.90
43227;DHT22;28839;52.404;9.808;2023-07-28T08:56:08;20.70;99.90
43227;DHT22;28839;52.404;9.808;2023-07-28T09:03:03;20.60;99.90
43227;DHT22;28839;52.404;9.808;2023-07-28T09:09:59;20.90;99.90
43227;DHT22;28839;52.404;9.808;2023-07-28T09:16:53;21.00;99.90
43227;DHT22;28839;52.404;9.808;2023-07-28T09:23:48;21.00;99.90
43227;DHT22;28839;52.404;9.808;2023-07-28T09:30:46;21.50;99.90
43227;DHT22;28839;52.404;9.808;2023-07-28T09:37:42;21.60;99.90
43227;DHT22;28839;52.404;9.808;2023-07-28T09:44:38;21.70;99.90
43227;DHT22;28839;52.404;9.808;2023-07-28T09:51:34;22.30;99.90
43227;DHT22;28839;52.404;9.808;2023-07-28T09:58:31;23.10;99.90
43227;DHT22;28839;52.404;9.808;2023-07-28T10:05:29;23.00;99.90
43227;DHT22;28839;52.404;9.808;2023-07-28T10:12:24;22.70;99.90
43227;DHT22;28839;52.404;9.808;2023-07-28T10:19:20;22.20;99.90
43227;DHT22;28839;52.404;9.808;2023-07-28T10:26:31;22.10;99.90
43227;DHT22;28839;52.404;9.808;2023-07-28T10:33:27;22.80;99.90
43227;DHT22;28839;52.404;9.808;2023-07-28T10:40:27;22.60;99.90
43227;DHT22;28839;52.404;9.808;2023-07-28T10:47:23;22.50;99.90
43227;DHT22;28839;52.404;9.808;2023-07-28T10:54:17;22.20;99.90
43227;DHT22;28839;52.404;9.808;2023-07-28T11:01:14;22.80;99.90
43227;DHT22;28839;52.404;9.808;2023-07-28T11:08:10;22.30;99.90
43227;DHT22;28839;52.404;9.808;2023-07-28T11:15:07;22.80;99.90
43227;DHT22;28839;52.404;9.808;2023-07-28T11:22:02;22.70;99.90
43227;DHT22;28839;52.404;9.808;2023-07-28T11:28:59;22.90;99.90
43227;DHT22;28839;52.404;9.808;2023-07-28T11:35:53;23.10;99.90
43227;DHT22;28839;52.404;9.808;2023-07-28T11:42:49;24.10;99.90
43227;DHT22;28839;52.404;9.808;2023-07-28T11:49:47;24.20;99.90
43227;DHT22;28839;52.404;9.808;2023-07-28T11:56:42;24.30;99.90
43227;DHT22;28839;52.404;9.808;2023-07-28T12:03:36;24.00;99.90
43227;DHT22;28839;52.404;9.808;2023-07-28T12:10:31;24.30;99.90
43227;DHT22;28839;52.404;9.808;2023-07-28T12:17:26;23.70;99.90
43227;DHT22;28839;52.404;9.808;2023-07-28T12:24:21;23.70;99.90
43227;DHT22;28839;52.404;9.808;2023-07-28T12:31:16;24.20;99.90
43227;DHT22;28839;52.404;9.808;2023-07-28T12:38:10;24.40;99.90
43227;DHT22;28839;52.404;9.808;2023-07-28T12:45:04;24.50;99.90
43227;DHT22;28839;52.404;9.808;2023-07-28T12:52:03;24.60;99.90
43227;DHT22;28839;52.404;9.808;2023-07-28T12:58:58;24.90;99.90
43227;DHT22;28839;52.404;9.808;2023-07-28T13:05:51;24.70;99.90
43227;DHT22;28839;52.404;9.808;2023-07-28T13:12:46;24.50;99.90
43227;DHT22;28839;52.404;9.808;2023-07-28T13:19:40;24.40;99.90
43227;DHT22;28839;52.404;9.808;2023-07-28T13:26:34;24.60;99.90
43227;DHT22;28839;52.404;9.808;2023-07-28T13:33:29;23.80;99.90
43227;DHT22;28839;52.404;9.808;2023-07-28T13:40:23;24.50;99.90
43227;DHT22;28839;52.404;9.808;2023-07-28T13:47:17;24.70;99.90
43227;DHT22;28839;52.404;9.808;2023-07-28T13:54:12;24.50;99.90
43227;DHT22;28839;52.404;9.808;2023-07-28T14:01:06;24.60;99.90
43227;DHT22;28839;52.404;9.808;2023-07-28T14:08:00;24.90;99.90
43227;DHT22;28839;52.404;9.808;2023-07-28T14:14:55;25.30;99.90
43227;DHT22;28839;52.404;9.808;2023-07-28T14:21:49;25.20;99.90
43227;DHT22;28839;52.404;9.808;2023-07-28T14:28:43;25.50;99.90
43227;DHT22;28839;52.404;9.808;2023-07-28T14:35:38;25.80;99.90
43227;DHT22;28839;52.404;9.808;2023-07-28T14:42:32;25.50;99.90
43227;DHT22;28839;52.404;9.808;2023-07-28T14:49:26;25.80;99.90
43227;DHT22;28839;52.404;9.808;2023-07-28T14:56:21;26.00;99.90
43227;DHT22;28839;52.404;9.808;2023-07-28T15:03:17;26.10;99.90
43227;DHT22;28839;52.404;9.808;2023-07-28T15:10:11;26.30;99.90
43227;DHT22;28839;52.404;9.808;2023-07-28T15:17:06;26.00;99.90
43227;DHT22;28839;52.404;9.808;2023-07-28T15:24:00;25.50;99.90
43227;DHT22;28839;52.404;9.808;2023-07-28T15:30:54;25.50;99.90
43227;DHT22;28839;52.404;9.808;2023-07-28T15:37:49;25.80;99.90
43227;DHT22;28839;52.404;9.808;2023-07-28T15:44:43;25.60;99.90
43227;DHT22;28839;52.404;9.808;2023-07-28T15:51:37;25.40;99.90
43227;DHT22;28839;52.404;9.808;2023-07-28T15:58:32;25.90;99.90
43227;DHT22;28839;52.404;9.808;2023-07-28T16:05:26;26.10;99.90
43227;DHT22;28839;52.404;9.808;2023-07-28T16:12:20;25.70;99.90
43227;DHT22;28839;52.404;9.808;2023-07-28T16:19:15;25.80;99.90
43227;DHT22;28839;52.404;9.808;2023-07-28T16:26:09;25.90;99.90
43227;DHT22;28839;52.404;9.808;2023-07-28T16:33:03;26.00;99.90
43227;DHT22;28839;52.404;9.808;2023-07-28T16:39:58;25.30;99.90
43227;DHT22;28839;52.404;9.808;2023-07-28T16:46:52;25.00;99.90
43227;DHT22;28839;52.404;9.808;2023-07-28T16:53:46;24.80;99.90
43227;DHT22;28839;52.404;9.808;2023-07-28T17:00:41;24.90;99.90
43227;DHT22;28839;52.404;9.808;2023-07-28T17:07:35;25.40;99.90
43227;DHT22;28839;52.404;9.808;2023-07-28T17:14:29;25.50;99.90
43227;DHT22;28839;52.404;9.808;2023-07-28T17:21:24;25.40;99.90
43227;DHT22;28839;52.404;9.808;2023-07-28T17:28:18;25.20;99.90
43227;DHT22;28839;52.404;9.808;2023-07-28T17:35:11;24.80;99.90
43227;DHT22;28839;52.404;9.808;2023-07-28T17:42:07;24.70;99.90
43227;DHT22;28839;52.404;9.808;2023-07-28T17:49:00;24.30;99.90
43227;DHT22;28839;52.404;9.808;2023-07-28T17:55:55;24.20;99.90
43227;DHT22;28839;52.404;9.808;2023-07-28T18:02:50;24.00;99.90
43227;DHT22;28839;52.404;9.808;2023-07-28T18:09:44;23.60;99.90
43227;DHT22;28839;52.404;9.808;2023-07-28T18:16:38;23.10;99.90
43227;DHT22;28839;52.404;9.808;2023-07-28T18:23:33;23.00;99.90
43227;DHT22;28839;52.404;9.808;2023-07-28T18:30:27;23.10;99.90
43227;DHT22;28839;52.404;9.808;2023-07-28T18:37:21;23.10;99.90
43227;DHT22;28839;52.404;9.808;2023-07-28T18:44:16;22.90;99.90
43227;DHT22;28839;52.404;9.808;2023-07-28T18:51:10;22.80;99.90
43227;DHT22;28839;52.404;9.808;2023-07-28T18:58:05;22.50;99.90
43227;DHT22;28839;52.404;9.808;2023-07-28T19:05:00;22.20;99.90
43227;DHT22;28839;52.404;9.808;2023-07-28T19:11:54;22.10;99.90
43227;DHT22;28839;52.404;9.808;2023-07-28T19:18:47;21.90;99.90
43227;DHT22;28839;52.404;9.808;2023-07-28T19:25:42;21.70;99.90
43227;DHT22;28839;52.404;9.808;2023-07-28T19:32:36;21.40;99.90
43227;DHT22;28839;52.404;9.808;2023-07-28T19:39:30;21.30;99.90
43227;DHT22;28839;52.404;9.808;2023-07-28T19:46:25;21.30;99.90
43227;DHT22;28839;52.404;9.808;2023-07-28T19:53:20;21.10;99.90
43227;DHT22;28839;52.404;9.808;2023-07-28T20:00:14;21.00;99.90
43227;DHT22;28839;52.404;9.808;2023-07-28T20:07:09;20.80;99.90
43227;DHT22;28839;52.404;9.808;2023-07-28T20:14:03;20.70;99.90
43227;DHT22;28839;52.404;9.808;2023-07-28T20:20:57;20.70;99.90
43227;DHT22;28839;52.404;9.808;2023-07-28T20:27:52;20.60;99.90
43227;DHT22;28839;52.404;9.808;2023-07-28T20:34:46;20.60;99.90
43227;DHT22;28839;52.404;9.808;2023-07-28T20:41:40;20.50;99.90
43227;DHT22;28839;52.404;9.808;2023-07-28T20:48:36;20.50;99.90
43227;DHT22;28839;52.404;9.808;2023-07-28T20:55:29;20.50;99.90
43227;DHT22;28839;52.404;9.808;2023-07-28T21:02:23;20.50;99.90
43227;DHT22;28839;52.404;9.808;2023-07-28T21:09:18;20.40;99.90
43227;DHT22;28839;52.404;9.808;2023-07-28T21:16:13;20.40;99.90
43227;DHT22;28839;52.404;9.808;2023-07-28T21:23:06;20.50;99.90
43227;DHT22;28839;52.404;9.808;2023-07-28T21:30:02;20.40;99.90
43227;DHT22;28839;52.404;9.808;2023-07-28T21:36:55;20.20;99.90
43227;DHT22;28839;52.404;9.808;2023-07-28T21:43:49;20.10;99.90
43227;DHT22;28839;52.404;9.808;2023-07-28T21:50:44;20.10;99.90
43227;DHT22;28839;52.404;9.808;2023-07-28T21:57:38;20.10;99.90
43227;DHT22;28839;52.404;9.808;2023-07-28T22:04:37;20.20;99.90
43227;DHT22;28839;52.404;9.808;2023-07-28T22:11:33;20.30;99.90
43227;DHT22;28839;52.404;9.808;2023-07-28T22:18:27;20.10;99.90
43227;DHT22;28839;52.404;9.808;2023-07-28T22:25:20;20.20;99.90
43227;DHT22;28839;52.404;9.808;2023-07-28T22:32:16;20.20;99.90
43227;DHT22;28839;52.404;9.808;2023-07-28T22:39:09;20.10;99.90
43227;DHT22;28839;52.404;9.808;2023-07-28T22:46:03;19.90;99.90
43227;DHT22;28839;52.404;9.808;2023-07-28T22:52:58;19.70;99.90
43227;DHT22;28839;52.404;9.808;2023-07-28T22:59:52;19.60;99.90
43227;DHT22;28839;52.404;9.808;2023-07-28T23:06:46;19.50;99.90
43227;DHT22;28839;52.404;9.808;2023-07-28T23:13:41;19.60;99.90
43227;DHT22;28839;52.404;9.808;2023-07-28T23:20:35;19.60;99.90
43227;DHT22;28839;52.404;9.808;2023-07-28T23:27:29;19.60;99.90
43227;DHT22;28839;52.404;9.808;2023-07-28T23:34:24;19.50;99.90
43227;DHT22;28839;52.404;9.808;2023-07-28T23:41:18;19.40;99.90
43227;DHT22;28839;52.404;9.808;2023-07-28T23:48:12;19.40;99.90
43227;DHT22;28839;52.404;9.808;2023-07-28T23:55:07;19.50;99.90
